sensor_id;sensor_type;location;lat;lon;timestamp;P1;durP1;ratioP1;P2;durP2;ratioP2
5391;SDS011;2719;53.624;9.786;2023-03-31T00:00:56;24.03;;;3.47;;
5391;SDS011;2719;53.624;9.786;2023-03-31T00:03:25;19.67;;;3.67;;
5391;SDS011;2719;53.624;9.786;2023-03-31T00:05:55;9.93;;;2.07;;
5391;SDS011;2719;53.624;9.786;2023-03-31T00:08:23;21.30;;;2.33;;
5391;SDS011;2719;53.624;9.786;2023-03-31T00:10:57;10.70;;;1.80;;
5391;SDS011;2719;53.624;9.786;2023-03-31T00:13:24;16.23;;;2.03;;
5391;SDS011;2719;53.624;9.786;2023-03-31T00:15:54;20.00;;;2.40;;
5391;SDS011;2719;53.624;9.786;2023-03-31T00:18:22;15.23;;;3.03;;
5391;SDS011;2719;53.624;9.786;2023-03-31T00:20:51;17.83;;;3.33;;
5391;SDS011;2719;53.624;9.786;2023-03-31T00:23:18;19.20;;;2.70;;
5391;SDS011;2719;53.624;9.786;2023-03-31T00:25:52;20.10;;;1.97;;
5391;SDS011;2719;53.624;9.786;2023-03-31T00:28:19;20.43;;;3.70;;
5391;SDS011;2719;53.624;9.786;2023-03-31T00:30:46;16.57;;;2.20;;
5391;SDS011;2719;53.624;9.786;2023-03-31T00:33:13;14.30;;;2.03;;
5391;SDS011;2719;53.624;9.786;2023-03-31T00:35:39;12.77;;;2.00;;
5391;SDS011;2719;53.624;9.786;2023-03-31T00:38:09;23.30;;;3.03;;
5391;SDS011;2719;53.624;9.786;2023-03-31T00:40:42;13.17;;;2.30;;
5391;SDS011;2719;53.624;9.786;2023-03-31T00:43:12;23.30;;;1.90;;
5391;SDS011;2719;53.624;9.786;2023-03-31T00:45:53;15.97;;;1.57;;
5391;SDS011;2719;53.624;9.786;2023-03-31T00:48:20;19.43;;;3.10;;
5391;SDS011;2719;53.624;9.786;2023-03-31T00:50:50;15.27;;;2.20;;
5391;SDS011;2719;53.624;9.786;2023-03-31T00:53:21;16.13;;;2.40;;
5391;SDS011;2719;53.624;9.786;2023-03-31T00:55:52;18.17;;;2.57;;
5391;SDS011;2719;53.624;9.786;2023-03-31T00:58:22;18.63;;;1.77;;
5391;SDS011;2719;53.624;9.786;2023-03-31T01:00:52;12.20;;;1.70;;
5391;SDS011;2719;53.624;9.786;2023-03-31T01:03:21;16.57;;;2.40;;
5391;SDS011;2719;53.624;9.786;2023-03-31T01:05:49;15.03;;;2.60;;
5391;SDS011;2719;53.624;9.786;2023-03-31T01:08:21;15.37;;;2.03;;
5391;SDS011;2719;53.624;9.786;2023-03-31T01:10:51;12.93;;;2.37;;
5391;SDS011;2719;53.624;9.786;2023-03-31T01:13:20;10.20;;;1.90;;
5391;SDS011;2719;53.624;9.786;2023-03-31T01:15:47;12.87;;;1.33;;
5391;SDS011;2719;53.624;9.786;2023-03-31T01:18:14;16.57;;;1.73;;
5391;SDS011;2719;53.624;9.786;2023-03-31T01:20:47;10.00;;;1.97;;
5391;SDS011;2719;53.624;9.786;2023-03-31T01:23:35;14.10;;;3.17;;
5391;SDS011;2719;53.624;9.786;2023-03-31T01:26:35;15.17;;;1.80;;
5391;SDS011;2719;53.624;9.786;2023-03-31T01:29:19;19.00;;;1.47;;
5391;SDS011;2719;53.624;9.786;2023-03-31T01:32:16;27.90;;;2.80;;
5391;SDS011;2719;53.624;9.786;2023-03-31T01:35:18;10.80;;;1.10;;
5391;SDS011;2719;53.624;9.786;2023-03-31T01:38:05;13.57;;;1.97;;
5391;SDS011;2719;53.624;9.786;2023-03-31T01:41:08;10.20;;;1.60;;
5391;SDS011;2719;53.624;9.786;2023-03-31T01:43:53;18.00;;;2.37;;
5391;SDS011;2719;53.624;9.786;2023-03-31T01:46:30;8.70;;;1.63;;
5391;SDS011;2719;53.624;9.786;2023-03-31T01:49:02;19.73;;;2.60;;
5391;SDS011;2719;53.624;9.786;2023-03-31T01:51:41;24.83;;;2.63;;
5391;SDS011;2719;53.624;9.786;2023-03-31T01:54:17;8.10;;;1.17;;
5391;SDS011;2719;53.624;9.786;2023-03-31T01:56:48;17.97;;;2.37;;
5391;SDS011;2719;53.624;9.786;2023-03-31T01:59:21;12.97;;;1.40;;
5391;SDS011;2719;53.624;9.786;2023-03-31T02:01:52;15.73;;;2.43;;
5391;SDS011;2719;53.624;9.786;2023-03-31T02:04:22;15.37;;;2.13;;
5391;SDS011;2719;53.624;9.786;2023-03-31T02:06:52;16.70;;;3.00;;
5391;SDS011;2719;53.624;9.786;2023-03-31T02:09:24;19.70;;;3.20;;
5391;SDS011;2719;53.624;9.786;2023-03-31T02:11:55;21.87;;;4.80;;
5391;SDS011;2719;53.624;9.786;2023-03-31T02:14:25;10.00;;;1.43;;
5391;SDS011;2719;53.624;9.786;2023-03-31T02:16:54;16.87;;;3.37;;
5391;SDS011;2719;53.624;9.786;2023-03-31T02:19:27;14.90;;;1.90;;
5391;SDS011;2719;53.624;9.786;2023-03-31T02:21:56;19.60;;;2.50;;
5391;SDS011;2719;53.624;9.786;2023-03-31T02:24:24;16.07;;;1.30;;
5391;SDS011;2719;53.624;9.786;2023-03-31T02:26:52;20.33;;;3.23;;
5391;SDS011;2719;53.624;9.786;2023-03-31T02:29:28;10.97;;;1.80;;
5391;SDS011;2719;53.624;9.786;2023-03-31T02:31:57;18.80;;;1.70;;
5391;SDS011;2719;53.624;9.786;2023-03-31T02:34:27;12.60;;;3.33;;
5391;SDS011;2719;53.624;9.786;2023-03-31T02:36:54;10.63;;;1.77;;
5391;SDS011;2719;53.624;9.786;2023-03-31T02:39:22;10.23;;;1.47;;
5391;SDS011;2719;53.624;9.786;2023-03-31T02:41:51;8.77;;;1.30;;
5391;SDS011;2719;53.624;9.786;2023-03-31T02:44:20;14.70;;;1.60;;
5391;SDS011;2719;53.624;9.786;2023-03-31T02:46:47;11.37;;;1.57;;
5391;SDS011;2719;53.624;9.786;2023-03-31T02:49:14;8.07;;;1.90;;
5391;SDS011;2719;53.624;9.786;2023-03-31T02:51:46;17.90;;;3.27;;
5391;SDS011;2719;53.624;9.786;2023-03-31T02:54:29;24.47;;;2.30;;
5391;SDS011;2719;53.624;9.786;2023-03-31T02:57:18;13.23;;;2.07;;
5391;SDS011;2719;53.624;9.786;2023-03-31T02:59:57;11.10;;;2.10;;
5391;SDS011;2719;53.624;9.786;2023-03-31T03:02:36;10.23;;;1.60;;
5391;SDS011;2719;53.624;9.786;2023-03-31T03:05:11;16.60;;;2.43;;
5391;SDS011;2719;53.624;9.786;2023-03-31T03:07:45;18.23;;;2.67;;
5391;SDS011;2719;53.624;9.786;2023-03-31T03:10:19;6.17;;;1.43;;
5391;SDS011;2719;53.624;9.786;2023-03-31T03:12:55;15.13;;;2.77;;
5391;SDS011;2719;53.624;9.786;2023-03-31T03:15:29;14.33;;;2.20;;
5391;SDS011;2719;53.624;9.786;2023-03-31T03:17:58;14.60;;;2.30;;
5391;SDS011;2719;53.624;9.786;2023-03-31T03:20:26;12.63;;;2.43;;
5391;SDS011;2719;53.624;9.786;2023-03-31T03:22:53;7.47;;;1.47;;
5391;SDS011;2719;53.624;9.786;2023-03-31T03:25:19;13.70;;;2.00;;
5391;SDS011;2719;53.624;9.786;2023-03-31T03:27:48;18.03;;;1.47;;
5391;SDS011;2719;53.624;9.786;2023-03-31T03:30:17;12.90;;;1.43;;
5391;SDS011;2719;53.624;9.786;2023-03-31T03:32:45;15.47;;;2.03;;
5391;SDS011;2719;53.624;9.786;2023-03-31T03:35:12;6.43;;;1.70;;
5391;SDS011;2719;53.624;9.786;2023-03-31T03:37:38;12.37;;;2.20;;
5391;SDS011;2719;53.624;9.786;2023-03-31T03:40:06;15.73;;;2.33;;
5391;SDS011;2719;53.624;9.786;2023-03-31T03:42:34;14.40;;;1.73;;
5391;SDS011;2719;53.624;9.786;2023-03-31T03:45:02;19.37;;;3.53;;
5391;SDS011;2719;53.624;9.786;2023-03-31T03:47:29;14.03;;;2.87;;
5391;SDS011;2719;53.624;9.786;2023-03-31T03:49:58;15.30;;;2.93;;
5391;SDS011;2719;53.624;9.786;2023-03-31T03:52:24;12.17;;;1.97;;
5391;SDS011;2719;53.624;9.786;2023-03-31T03:54:51;9.83;;;2.10;;
5391;SDS011;2719;53.624;9.786;2023-03-31T03:57:18;8.37;;;1.80;;
5391;SDS011;2719;53.624;9.786;2023-03-31T03:59:44;10.50;;;2.23;;
5391;SDS011;2719;53.624;9.786;2023-03-31T04:02:11;5.43;;;1.40;;
5391;SDS011;2719;53.624;9.786;2023-03-31T04:04:38;7.73;;;1.93;;
5391;SDS011;2719;53.624;9.786;2023-03-31T04:07:06;21.47;;;2.20;;
5391;SDS011;2719;53.624;9.786;2023-03-31T04:09:33;5.43;;;1.50;;
5391;SDS011;2719;53.624;9.786;2023-03-31T04:11:59;17.67;;;1.77;;
5391;SDS011;2719;53.624;9.786;2023-03-31T04:14:26;10.50;;;2.90;;
5391;SDS011;2719;53.624;9.786;2023-03-31T04:16:53;9.13;;;2.63;;
5391;SDS011;2719;53.624;9.786;2023-03-31T04:19:20;13.70;;;2.20;;
5391;SDS011;2719;53.624;9.786;2023-03-31T04:21:49;11.53;;;2.43;;
5391;SDS011;2719;53.624;9.786;2023-03-31T04:24:24;13.10;;;2.20;;
5391;SDS011;2719;53.624;9.786;2023-03-31T04:26:57;7.87;;;2.60;;
5391;SDS011;2719;53.624;9.786;2023-03-31T04:29:24;14.03;;;2.40;;
5391;SDS011;2719;53.624;9.786;2023-03-31T04:31:51;7.07;;;2.07;;
5391;SDS011;2719;53.624;9.786;2023-03-31T04:34:23;18.03;;;2.67;;
5391;SDS011;2719;53.624;9.786;2023-03-31T04:36:58;8.97;;;2.70;;
5391;SDS011;2719;53.624;9.786;2023-03-31T04:39:28;9.10;;;2.37;;
5391;SDS011;2719;53.624;9.786;2023-03-31T04:41:55;6.67;;;1.90;;
5391;SDS011;2719;53.624;9.786;2023-03-31T04:44:23;13.10;;;1.73;;
5391;SDS011;2719;53.624;9.786;2023-03-31T04:46:50;12.13;;;2.03;;
5391;SDS011;2719;53.624;9.786;2023-03-31T04:49:17;5.97;;;1.53;;
5391;SDS011;2719;53.624;9.786;2023-03-31T04:51:43;10.10;;;2.23;;
5391;SDS011;2719;53.624;9.786;2023-03-31T04:54:10;7.70;;;2.17;;
5391;SDS011;2719;53.624;9.786;2023-03-31T04:56:38;15.00;;;2.30;;
5391;SDS011;2719;53.624;9.786;2023-03-31T04:59:04;14.27;;;3.47;;
5391;SDS011;2719;53.624;9.786;2023-03-31T05:01:32;12.23;;;2.60;;
5391;SDS011;2719;53.624;9.786;2023-03-31T05:04:00;11.63;;;2.20;;
5391;SDS011;2719;53.624;9.786;2023-03-31T05:06:27;14.63;;;2.70;;
5391;SDS011;2719;53.624;9.786;2023-03-31T05:08:53;11.53;;;2.10;;
5391;SDS011;2719;53.624;9.786;2023-03-31T05:11:20;9.23;;;1.73;;
5391;SDS011;2719;53.624;9.786;2023-03-31T05:13:48;10.27;;;2.73;;
5391;SDS011;2719;53.624;9.786;2023-03-31T05:16:15;14.50;;;3.00;;
5391;SDS011;2719;53.624;9.786;2023-03-31T05:18:42;17.00;;;3.13;;
5391;SDS011;2719;53.624;9.786;2023-03-31T05:21:10;17.77;;;4.03;;
5391;SDS011;2719;53.624;9.786;2023-03-31T05:23:39;13.00;;;3.03;;
5391;SDS011;2719;53.624;9.786;2023-03-31T05:26:06;10.47;;;2.70;;
5391;SDS011;2719;53.624;9.786;2023-03-31T05:28:33;11.70;;;2.97;;
5391;SDS011;2719;53.624;9.786;2023-03-31T05:31:01;12.33;;;2.77;;
5391;SDS011;2719;53.624;9.786;2023-03-31T05:33:29;8.40;;;3.00;;
5391;SDS011;2719;53.624;9.786;2023-03-31T05:35:56;13.03;;;3.70;;
5391;SDS011;2719;53.624;9.786;2023-03-31T05:38:24;12.50;;;3.30;;
5391;SDS011;2719;53.624;9.786;2023-03-31T05:40:53;11.13;;;2.27;;
5391;SDS011;2719;53.624;9.786;2023-03-31T05:43:20;15.40;;;3.00;;
5391;SDS011;2719;53.624;9.786;2023-03-31T05:45:46;16.10;;;3.70;;
5391;SDS011;2719;53.624;9.786;2023-03-31T05:48:15;26.13;;;3.73;;
5391;SDS011;2719;53.624;9.786;2023-03-31T05:50:41;12.27;;;3.07;;
5391;SDS011;2719;53.624;9.786;2023-03-31T05:53:08;12.50;;;3.43;;
5391;SDS011;2719;53.624;9.786;2023-03-31T05:55:35;17.80;;;3.57;;
5391;SDS011;2719;53.624;9.786;2023-03-31T05:58:02;8.20;;;2.90;;
5391;SDS011;2719;53.624;9.786;2023-03-31T06:00:30;14.63;;;3.13;;
5391;SDS011;2719;53.624;9.786;2023-03-31T06:02:57;8.53;;;3.10;;
5391;SDS011;2719;53.624;9.786;2023-03-31T06:05:25;9.80;;;2.83;;
5391;SDS011;2719;53.624;9.786;2023-03-31T06:07:54;11.30;;;3.43;;
5391;SDS011;2719;53.624;9.786;2023-03-31T06:10:21;10.80;;;3.10;;
5391;SDS011;2719;53.624;9.786;2023-03-31T06:12:48;17.00;;;4.43;;
5391;SDS011;2719;53.624;9.786;2023-03-31T06:15:15;8.60;;;2.77;;
5391;SDS011;2719;53.624;9.786;2023-03-31T06:17:41;9.70;;;3.57;;
5391;SDS011;2719;53.624;9.786;2023-03-31T06:20:08;17.97;;;3.80;;
5391;SDS011;2719;53.624;9.786;2023-03-31T06:22:37;10.90;;;3.00;;
5391;SDS011;2719;53.624;9.786;2023-03-31T06:25:04;11.53;;;2.90;;
5391;SDS011;2719;53.624;9.786;2023-03-31T06:27:31;12.17;;;3.40;;
5391;SDS011;2719;53.624;9.786;2023-03-31T06:29:57;10.10;;;3.70;;
5391;SDS011;2719;53.624;9.786;2023-03-31T06:32:24;12.33;;;2.90;;
5391;SDS011;2719;53.624;9.786;2023-03-31T06:34:51;11.40;;;3.50;;
5391;SDS011;2719;53.624;9.786;2023-03-31T06:37:17;14.37;;;4.63;;
5391;SDS011;2719;53.624;9.786;2023-03-31T06:39:45;10.67;;;3.40;;
5391;SDS011;2719;53.624;9.786;2023-03-31T06:42:13;8.93;;;3.60;;
5391;SDS011;2719;53.624;9.786;2023-03-31T06:44:40;10.93;;;4.20;;
5391;SDS011;2719;53.624;9.786;2023-03-31T06:47:06;11.73;;;3.87;;
5391;SDS011;2719;53.624;9.786;2023-03-31T06:49:33;11.67;;;2.90;;
5391;SDS011;2719;53.624;9.786;2023-03-31T06:52:00;14.37;;;3.47;;
5391;SDS011;2719;53.624;9.786;2023-03-31T06:54:28;12.33;;;4.07;;
5391;SDS011;2719;53.624;9.786;2023-03-31T06:56:56;12.50;;;3.10;;
5391;SDS011;2719;53.624;9.786;2023-03-31T06:59:22;13.90;;;3.90;;
5391;SDS011;2719;53.624;9.786;2023-03-31T07:01:49;16.33;;;2.90;;
5391;SDS011;2719;53.624;9.786;2023-03-31T07:04:16;19.03;;;4.40;;
5391;SDS011;2719;53.624;9.786;2023-03-31T07:06:42;12.67;;;3.53;;
5391;SDS011;2719;53.624;9.786;2023-03-31T07:09:09;10.83;;;3.30;;
5391;SDS011;2719;53.624;9.786;2023-03-31T07:11:36;18.13;;;4.63;;
5391;SDS011;2719;53.624;9.786;2023-03-31T07:14:04;17.87;;;2.83;;
5391;SDS011;2719;53.624;9.786;2023-03-31T07:16:30;14.27;;;4.00;;
5391;SDS011;2719;53.624;9.786;2023-03-31T07:18:57;9.43;;;2.57;;
5391;SDS011;2719;53.624;9.786;2023-03-31T07:21:27;9.13;;;3.10;;
5391;SDS011;2719;53.624;9.786;2023-03-31T07:23:54;11.20;;;3.53;;
5391;SDS011;2719;53.624;9.786;2023-03-31T07:26:20;10.77;;;3.67;;
5391;SDS011;2719;53.624;9.786;2023-03-31T07:28:48;17.80;;;3.27;;
5391;SDS011;2719;53.624;9.786;2023-03-31T07:31:17;8.90;;;3.30;;
5391;SDS011;2719;53.624;9.786;2023-03-31T07:33:43;11.93;;;3.97;;
5391;SDS011;2719;53.624;9.786;2023-03-31T07:36:10;10.37;;;2.87;;
5391;SDS011;2719;53.624;9.786;2023-03-31T07:38:37;11.37;;;3.27;;
5391;SDS011;2719;53.624;9.786;2023-03-31T07:41:03;11.53;;;3.37;;
5391;SDS011;2719;53.624;9.786;2023-03-31T07:43:30;24.53;;;3.87;;
5391;SDS011;2719;53.624;9.786;2023-03-31T07:45:57;7.00;;;2.53;;
5391;SDS011;2719;53.624;9.786;2023-03-31T07:48:25;7.30;;;3.00;;
5391;SDS011;2719;53.624;9.786;2023-03-31T07:50:52;6.57;;;2.40;;
5391;SDS011;2719;53.624;9.786;2023-03-31T07:53:19;15.90;;;2.87;;
5391;SDS011;2719;53.624;9.786;2023-03-31T07:55:46;10.77;;;4.73;;
5391;SDS011;2719;53.624;9.786;2023-03-31T07:58:13;10.23;;;2.30;;
5391;SDS011;2719;53.624;9.786;2023-03-31T08:00:39;9.20;;;2.37;;
5391;SDS011;2719;53.624;9.786;2023-03-31T08:03:06;9.87;;;1.93;;
5391;SDS011;2719;53.624;9.786;2023-03-31T08:05:34;6.27;;;1.90;;
5391;SDS011;2719;53.624;9.786;2023-03-31T08:08:01;9.80;;;2.27;;
5391;SDS011;2719;53.624;9.786;2023-03-31T08:10:28;13.60;;;2.93;;
5391;SDS011;2719;53.624;9.786;2023-03-31T08:12:55;10.97;;;2.20;;
5391;SDS011;2719;53.624;9.786;2023-03-31T08:15:22;5.37;;;1.63;;
5391;SDS011;2719;53.624;9.786;2023-03-31T08:17:48;6.63;;;2.40;;
5391;SDS011;2719;53.624;9.786;2023-03-31T08:20:15;11.83;;;2.13;;
5391;SDS011;2719;53.624;9.786;2023-03-31T08:22:43;8.00;;;2.20;;
5391;SDS011;2719;53.624;9.786;2023-03-31T08:25:10;7.33;;;2.20;;
5391;SDS011;2719;53.624;9.786;2023-03-31T08:27:38;9.50;;;2.60;;
5391;SDS011;2719;53.624;9.786;2023-03-31T08:30:06;6.40;;;2.30;;
5391;SDS011;2719;53.624;9.786;2023-03-31T08:32:34;16.23;;;1.87;;
5391;SDS011;2719;53.624;9.786;2023-03-31T08:35:01;13.20;;;3.13;;
5391;SDS011;2719;53.624;9.786;2023-03-31T08:37:28;8.73;;;2.30;;
5391;SDS011;2719;53.624;9.786;2023-03-31T08:39:56;12.23;;;2.20;;
5391;SDS011;2719;53.624;9.786;2023-03-31T08:42:26;11.03;;;2.30;;
5391;SDS011;2719;53.624;9.786;2023-03-31T08:45:01;6.13;;;2.13;;
5391;SDS011;2719;53.624;9.786;2023-03-31T08:47:31;7.80;;;2.07;;
5391;SDS011;2719;53.624;9.786;2023-03-31T08:50:02;12.40;;;2.37;;
5391;SDS011;2719;53.624;9.786;2023-03-31T08:52:33;11.40;;;2.43;;
5391;SDS011;2719;53.624;9.786;2023-03-31T08:55:05;6.37;;;1.63;;
5391;SDS011;2719;53.624;9.786;2023-03-31T08:57:37;3.60;;;1.47;;
5391;SDS011;2719;53.624;9.786;2023-03-31T09:00:13;6.73;;;1.43;;
5391;SDS011;2719;53.624;9.786;2023-03-31T09:02:42;7.67;;;3.80;;
5391;SDS011;2719;53.624;9.786;2023-03-31T09:05:37;4.23;;;1.37;;
5391;SDS011;2719;53.624;9.786;2023-03-31T09:08:12;8.00;;;1.77;;
5391;SDS011;2719;53.624;9.786;2023-03-31T09:10:48;4.73;;;1.53;;
5391;SDS011;2719;53.624;9.786;2023-03-31T09:13:28;3.33;;;1.10;;
5391;SDS011;2719;53.624;9.786;2023-03-31T09:16:19;6.50;;;1.47;;
5391;SDS011;2719;53.624;9.786;2023-03-31T09:18:49;4.10;;;1.03;;
5391;SDS011;2719;53.624;9.786;2023-03-31T09:21:20;5.37;;;1.60;;
5391;SDS011;2719;53.624;9.786;2023-03-31T09:23:52;6.00;;;1.03;;
5391;SDS011;2719;53.624;9.786;2023-03-31T09:26:26;3.10;;;0.90;;
5391;SDS011;2719;53.624;9.786;2023-03-31T09:28:59;8.73;;;0.73;;
5391;SDS011;2719;53.624;9.786;2023-03-31T09:31:30;5.37;;;1.00;;
5391;SDS011;2719;53.624;9.786;2023-03-31T09:33:58;12.13;;;1.73;;
5391;SDS011;2719;53.624;9.786;2023-03-31T09:36:27;5.50;;;0.97;;
5391;SDS011;2719;53.624;9.786;2023-03-31T09:38:54;4.20;;;0.80;;
5391;SDS011;2719;53.624;9.786;2023-03-31T09:41:20;19.83;;;1.57;;
5391;SDS011;2719;53.624;9.786;2023-03-31T09:43:49;3.43;;;0.80;;
5391;SDS011;2719;53.624;9.786;2023-03-31T09:46:17;2.83;;;0.70;;
5391;SDS011;2719;53.624;9.786;2023-03-31T09:48:51;3.63;;;0.90;;
5391;SDS011;2719;53.624;9.786;2023-03-31T09:51:25;5.20;;;1.60;;
5391;SDS011;2719;53.624;9.786;2023-03-31T09:53:55;4.73;;;1.80;;
5391;SDS011;2719;53.624;9.786;2023-03-31T09:56:36;3.30;;;0.83;;
5391;SDS011;2719;53.624;9.786;2023-03-31T09:59:14;3.10;;;0.97;;
5391;SDS011;2719;53.624;9.786;2023-03-31T10:01:43;3.17;;;0.93;;
5391;SDS011;2719;53.624;9.786;2023-03-31T10:04:16;10.67;;;0.90;;
5391;SDS011;2719;53.624;9.786;2023-03-31T10:06:47;3.97;;;0.90;;
5391;SDS011;2719;53.624;9.786;2023-03-31T10:09:16;3.33;;;1.47;;
5391;SDS011;2719;53.624;9.786;2023-03-31T10:11:52;3.90;;;0.83;;
5391;SDS011;2719;53.624;9.786;2023-03-31T10:14:24;3.57;;;0.97;;
5391;SDS011;2719;53.624;9.786;2023-03-31T10:16:57;8.20;;;1.20;;
5391;SDS011;2719;53.624;9.786;2023-03-31T10:19:28;2.67;;;1.00;;
5391;SDS011;2719;53.624;9.786;2023-03-31T10:21:57;2.07;;;0.80;;
5391;SDS011;2719;53.624;9.786;2023-03-31T10:24:25;3.60;;;0.83;;
5391;SDS011;2719;53.624;9.786;2023-03-31T10:27:01;2.40;;;0.70;;
5391;SDS011;2719;53.624;9.786;2023-03-31T10:29:31;2.60;;;1.00;;
5391;SDS011;2719;53.624;9.786;2023-03-31T10:32:01;7.60;;;1.53;;
5391;SDS011;2719;53.624;9.786;2023-03-31T10:34:30;5.80;;;1.00;;
5391;SDS011;2719;53.624;9.786;2023-03-31T10:36:57;6.30;;;1.73;;
5391;SDS011;2719;53.624;9.786;2023-03-31T10:39:26;5.23;;;1.30;;
5391;SDS011;2719;53.624;9.786;2023-03-31T10:41:56;7.50;;;1.10;;
5391;SDS011;2719;53.624;9.786;2023-03-31T10:44:34;3.20;;;1.30;;
5391;SDS011;2719;53.624;9.786;2023-03-31T10:47:04;2.93;;;0.80;;
5391;SDS011;2719;53.624;9.786;2023-03-31T10:49:36;9.67;;;1.10;;
5391;SDS011;2719;53.624;9.786;2023-03-31T10:52:12;3.67;;;0.90;;
5391;SDS011;2719;53.624;9.786;2023-03-31T10:54:45;5.83;;;1.13;;
5391;SDS011;2719;53.624;9.786;2023-03-31T10:57:17;6.77;;;1.23;;
5391;SDS011;2719;53.624;9.786;2023-03-31T10:59:57;6.20;;;0.83;;
5391;SDS011;2719;53.624;9.786;2023-03-31T11:02:43;4.93;;;1.13;;
5391;SDS011;2719;53.624;9.786;2023-03-31T11:05:26;4.63;;;1.20;;
5391;SDS011;2719;53.624;9.786;2023-03-31T11:08:07;3.97;;;1.30;;
5391;SDS011;2719;53.624;9.786;2023-03-31T11:10:47;8.40;;;1.00;;
5391;SDS011;2719;53.624;9.786;2023-03-31T11:13:25;2.60;;;0.87;;
5391;SDS011;2719;53.624;9.786;2023-03-31T11:16:02;4.30;;;1.20;;
5391;SDS011;2719;53.624;9.786;2023-03-31T11:18:40;2.70;;;0.80;;
5391;SDS011;2719;53.624;9.786;2023-03-31T11:21:20;4.47;;;1.20;;
5391;SDS011;2719;53.624;9.786;2023-03-31T11:23:57;1.33;;;0.77;;
5391;SDS011;2719;53.624;9.786;2023-03-31T11:26:33;2.40;;;0.70;;
5391;SDS011;2719;53.624;9.786;2023-03-31T11:29:12;2.13;;;0.70;;
5391;SDS011;2719;53.624;9.786;2023-03-31T11:31:51;9.63;;;1.10;;
5391;SDS011;2719;53.624;9.786;2023-03-31T11:34:27;3.63;;;0.60;;
5391;SDS011;2719;53.624;9.786;2023-03-31T11:37:14;6.93;;;1.10;;
5391;SDS011;2719;53.624;9.786;2023-03-31T11:39:58;1.23;;;0.60;;
5391;SDS011;2719;53.624;9.786;2023-03-31T11:42:41;2.93;;;1.20;;
5391;SDS011;2719;53.624;9.786;2023-03-31T11:45:15;1.43;;;0.60;;
5391;SDS011;2719;53.624;9.786;2023-03-31T11:47:45;4.33;;;0.87;;
5391;SDS011;2719;53.624;9.786;2023-03-31T11:50:17;2.67;;;0.70;;
5391;SDS011;2719;53.624;9.786;2023-03-31T11:52:49;3.27;;;0.60;;
5391;SDS011;2719;53.624;9.786;2023-03-31T11:55:22;3.50;;;0.60;;
5391;SDS011;2719;53.624;9.786;2023-03-31T11:57:53;2.60;;;0.70;;
5391;SDS011;2719;53.624;9.786;2023-03-31T12:00:27;3.37;;;0.67;;
5391;SDS011;2719;53.624;9.786;2023-03-31T12:03:00;2.57;;;0.83;;
5391;SDS011;2719;53.624;9.786;2023-03-31T12:05:33;4.17;;;0.53;;
5391;SDS011;2719;53.624;9.786;2023-03-31T12:08:06;3.17;;;0.73;;
5391;SDS011;2719;53.624;9.786;2023-03-31T12:10:38;1.10;;;0.40;;
5391;SDS011;2719;53.624;9.786;2023-03-31T12:13:19;4.33;;;0.67;;
5391;SDS011;2719;53.624;9.786;2023-03-31T12:15:57;2.20;;;0.50;;
5391;SDS011;2719;53.624;9.786;2023-03-31T12:18:31;1.83;;;0.50;;
5391;SDS011;2719;53.624;9.786;2023-03-31T12:21:02;7.40;;;0.60;;
5391;SDS011;2719;53.624;9.786;2023-03-31T12:23:32;1.57;;;0.40;;
5391;SDS011;2719;53.624;9.786;2023-03-31T12:26:05;6.50;;;0.70;;
5391;SDS011;2719;53.624;9.786;2023-03-31T12:28:39;2.80;;;0.63;;
5391;SDS011;2719;53.624;9.786;2023-03-31T12:31:09;3.27;;;1.13;;
5391;SDS011;2719;53.624;9.786;2023-03-31T12:33:45;2.30;;;0.67;;
5391;SDS011;2719;53.624;9.786;2023-03-31T12:36:19;1.00;;;0.53;;
5391;SDS011;2719;53.624;9.786;2023-03-31T12:38:55;1.10;;;0.40;;
5391;SDS011;2719;53.624;9.786;2023-03-31T12:41:34;3.43;;;0.60;;
5391;SDS011;2719;53.624;9.786;2023-03-31T12:44:16;2.23;;;0.83;;
5391;SDS011;2719;53.624;9.786;2023-03-31T12:47:06;5.57;;;0.80;;
5391;SDS011;2719;53.624;9.786;2023-03-31T12:49:54;2.10;;;0.80;;
5391;SDS011;2719;53.624;9.786;2023-03-31T12:52:35;1.47;;;0.60;;
5391;SDS011;2719;53.624;9.786;2023-03-31T12:55:20;7.43;;;0.93;;
5391;SDS011;2719;53.624;9.786;2023-03-31T13:01:03;6.73;;;1.13;;
5391;SDS011;2719;53.624;9.786;2023-03-31T13:03:36;3.63;;;0.70;;
5391;SDS011;2719;53.624;9.786;2023-03-31T13:06:08;2.67;;;0.97;;
5391;SDS011;2719;53.624;9.786;2023-03-31T13:08:58;6.40;;;1.23;;
5391;SDS011;2719;53.624;9.786;2023-03-31T13:11:33;4.07;;;1.10;;
5391;SDS011;2719;53.624;9.786;2023-03-31T13:14:04;4.30;;;0.70;;
5391;SDS011;2719;53.624;9.786;2023-03-31T13:16:36;4.37;;;0.93;;
5391;SDS011;2719;53.624;9.786;2023-03-31T13:19:03;7.27;;;1.30;;
5391;SDS011;2719;53.624;9.786;2023-03-31T13:21:30;5.03;;;1.63;;
5391;SDS011;2719;53.624;9.786;2023-03-31T13:24:19;3.13;;;0.80;;
5391;SDS011;2719;53.624;9.786;2023-03-31T13:26:47;2.80;;;0.97;;
5391;SDS011;2719;53.624;9.786;2023-03-31T13:29:19;2.13;;;0.90;;
5391;SDS011;2719;53.624;9.786;2023-03-31T13:34:45;2.87;;;1.20;;
5391;SDS011;2719;53.624;9.786;2023-03-31T13:37:27;4.57;;;1.10;;
5391;SDS011;2719;53.624;9.786;2023-03-31T13:43:22;5.87;;;0.90;;
5391;SDS011;2719;53.624;9.786;2023-03-31T13:46:17;3.40;;;1.23;;
5391;SDS011;2719;53.624;9.786;2023-03-31T13:49:02;6.33;;;0.90;;
5391;SDS011;2719;53.624;9.786;2023-03-31T13:51:43;3.30;;;0.93;;
5391;SDS011;2719;53.624;9.786;2023-03-31T13:54:30;6.10;;;1.23;;
5391;SDS011;2719;53.624;9.786;2023-03-31T13:57:18;3.07;;;0.70;;
5391;SDS011;2719;53.624;9.786;2023-03-31T14:00:05;3.87;;;1.00;;
5391;SDS011;2719;53.624;9.786;2023-03-31T14:02:54;10.80;;;0.93;;
5391;SDS011;2719;53.624;9.786;2023-03-31T14:05:32;6.90;;;0.90;;
5391;SDS011;2719;53.624;9.786;2023-03-31T14:08:01;3.17;;;1.00;;
5391;SDS011;2719;53.624;9.786;2023-03-31T14:10:31;4.73;;;0.87;;
5391;SDS011;2719;53.624;9.786;2023-03-31T14:13:03;4.03;;;0.70;;
5391;SDS011;2719;53.624;9.786;2023-03-31T14:15:33;1.63;;;0.60;;
5391;SDS011;2719;53.624;9.786;2023-03-31T14:18:01;3.40;;;0.63;;
5391;SDS011;2719;53.624;9.786;2023-03-31T14:20:34;1.30;;;0.60;;
5391;SDS011;2719;53.624;9.786;2023-03-31T14:23:09;1.87;;;0.60;;
5391;SDS011;2719;53.624;9.786;2023-03-31T14:25:46;2.33;;;0.80;;
5391;SDS011;2719;53.624;9.786;2023-03-31T14:28:20;2.70;;;0.70;;
5391;SDS011;2719;53.624;9.786;2023-03-31T14:31:08;4.23;;;0.70;;
5391;SDS011;2719;53.624;9.786;2023-03-31T14:33:45;3.70;;;0.70;;
5391;SDS011;2719;53.624;9.786;2023-03-31T14:36:19;4.23;;;0.73;;
5391;SDS011;2719;53.624;9.786;2023-03-31T14:38:54;3.33;;;0.60;;
5391;SDS011;2719;53.624;9.786;2023-03-31T14:41:28;5.33;;;0.70;;
5391;SDS011;2719;53.624;9.786;2023-03-31T14:43:55;4.90;;;0.60;;
5391;SDS011;2719;53.624;9.786;2023-03-31T14:46:28;4.60;;;0.90;;
5391;SDS011;2719;53.624;9.786;2023-03-31T14:48:56;1.87;;;0.90;;
5391;SDS011;2719;53.624;9.786;2023-03-31T14:51:25;6.23;;;0.67;;
5391;SDS011;2719;53.624;9.786;2023-03-31T14:53:54;1.73;;;0.60;;
5391;SDS011;2719;53.624;9.786;2023-03-31T14:56:23;2.03;;;0.70;;
5391;SDS011;2719;53.624;9.786;2023-03-31T14:58:57;1.07;;;0.60;;
5391;SDS011;2719;53.624;9.786;2023-03-31T15:01:27;4.93;;;0.60;;
5391;SDS011;2719;53.624;9.786;2023-03-31T15:03:59;3.00;;;1.00;;
5391;SDS011;2719;53.624;9.786;2023-03-31T15:06:30;4.20;;;0.60;;
5391;SDS011;2719;53.624;9.786;2023-03-31T15:08:59;5.30;;;0.60;;
5391;SDS011;2719;53.624;9.786;2023-03-31T15:11:28;2.50;;;0.77;;
5391;SDS011;2719;53.624;9.786;2023-03-31T15:13:55;6.03;;;1.17;;
5391;SDS011;2719;53.624;9.786;2023-03-31T15:16:29;1.30;;;0.60;;
5391;SDS011;2719;53.624;9.786;2023-03-31T15:19:04;2.27;;;0.80;;
5391;SDS011;2719;53.624;9.786;2023-03-31T15:21:36;1.20;;;0.60;;
5391;SDS011;2719;53.624;9.786;2023-03-31T15:24:04;1.17;;;0.60;;
5391;SDS011;2719;53.624;9.786;2023-03-31T15:26:32;1.00;;;0.60;;
5391;SDS011;2719;53.624;9.786;2023-03-31T15:29:03;5.53;;;1.00;;
5391;SDS011;2719;53.624;9.786;2023-03-31T15:31:35;4.50;;;1.27;;
5391;SDS011;2719;53.624;9.786;2023-03-31T15:34:10;2.40;;;0.83;;
5391;SDS011;2719;53.624;9.786;2023-03-31T15:36:40;3.10;;;0.60;;
5391;SDS011;2719;53.624;9.786;2023-03-31T15:39:06;1.73;;;0.60;;
5391;SDS011;2719;53.624;9.786;2023-03-31T15:41:33;3.43;;;1.17;;
5391;SDS011;2719;53.624;9.786;2023-03-31T15:44:04;1.00;;;0.60;;
5391;SDS011;2719;53.624;9.786;2023-03-31T15:46:48;1.20;;;0.60;;